Time;durP1;ratioP1;P1;durP2;ratioP2;P2;SDS_P1;SDS_P2;PMS_P1;PMS_P2;Temp;Humidity;BMP_temperature;BMP_pressure;BME280_temperature;BME280_humidity;BME280_pressure;Samples;Min_cycle;Max_cycle;Signal;HPM_P1;HPM_P2
2021/10/31 00:02:53;;;;;;;17.45;10.25;;;;;;;11.23;59.76;100272.02;5188568;56;1143160;-77
2021/10/31 00:07:59;;;;;;;18.70;9.87;;;;;;;11.22;59.90;100277.80;5185818;56;1143655;-77
2021/10/31 00:13:06;;;;;;;21.77;10.50;;;;;;;11.19;60.02;100267.95;5186907;56;1140947;-77
2021/10/31 00:18:12;;;;;;;18.43;10.17;;;;;;;11.14;60.16;100274.98;5109641;56;1143110;-77
2021/10/31 00:23:18;;;;;;;19.53;9.60;;;;;;;11.13;60.37;100282.56;5094122;57;1141459;-77
2021/10/31 00:28:25;;;;;;;14.95;9.13;;;;;;;11.10;60.44;100278.00;5091296;57;1138981;-77
2021/10/31 00:33:31;;;;;;;19.90;9.67;;;;;;;11.05;60.66;100279.69;5090638;57;1139300;-77
2021/10/31 00:38:38;;;;;;;16.67;9.00;;;;;;;10.99;60.85;100288.64;5089877;57;1139083;-77
2021/10/31 00:43:44;;;;;;;72.30;35.47;;;;;;;10.89;61.10;100294.67;5093643;57;1138924;-78
2021/10/31 00:48:50;;;;;;;34.73;18.33;;;;;;;10.82;61.30;100297.97;5090098;57;1141773;-77
2021/10/31 00:54:00;;;;;;;35.60;23.03;;;;;;;10.79;61.71;100310.96;5092427;57;1141297;-77
2021/10/31 00:59:06;;;;;;;14.00;8.53;;;;;;;10.76;61.78;100305.91;5089973;57;1141134;-77
2021/10/31 01:04:19;;;;;;;18.37;10.63;;;;;;;10.69;61.98;100306.08;5093683;57;1139540;-77
2021/10/31 01:09:45;;;;;;;14.10;8.33;;;;;;;10.63;62.20;100309.20;5091360;57;1141485;-77
2021/10/31 01:15:23;;;;;;;26.10;14.57;;;;;;;10.56;62.55;100301.39;5091338;57;1139155;-77
2021/10/31 01:20:55;;;;;;;38.40;20.77;;;;;;;10.53;62.81;100301.19;5191994;56;1143232;-77
2021/10/31 01:26:28;;;;;;;20.67;7.93;;;;;;;10.48;62.84;100311.77;5188693;56;1143111;-77
2021/10/31 01:32:29;;;;;;;21.47;10.03;;;;;;;10.42;63.33;100309.12;5183623;56;1141214;-76
2021/10/31 01:38:00;;;;;;;20.40;9.37;;;;;;;10.40;63.45;100296.50;5188234;56;1143195;-77
2021/10/31 01:43:31;;;;;;;20.67;9.37;;;;;;;10.37;63.77;100307.83;5186106;56;1141431;-77
2021/10/31 01:49:09;;;;;;;17.57;9.57;;;;;;;10.35;63.99;100309.75;5190444;56;1139017;-77
2021/10/31 01:54:22;;;;;;;19.20;10.73;;;;;;;10.32;64.31;100317.92;5192302;56;1138915;-77
2021/10/31 01:59:31;;;;;;;17.40;10.08;;;;;;;10.31;64.16;100327.66;5123561;56;1141419;-77
2021/10/31 02:04:39;;;;;;;18.97;11.33;;;;;;;10.28;64.37;100321.77;5185404;56;1141093;-76
2021/10/31 02:09:46;;;;;;;22.57;10.20;;;;;;;10.27;64.68;100309.50;5171285;56;1141015;-77
2021/10/31 02:14:53;;;;;;;19.73;10.60;;;;;;;10.26;64.45;100315.27;5105817;56;1141144;-76
2021/10/31 02:20:00;;;;;;;15.53;10.63;;;;;;;10.23;64.83;100317.67;5090751;57;1141458;-77
2021/10/31 02:25:06;;;;;;;27.07;12.57;;;;;;;10.19;65.01;100313.61;5148717;56;1141364;-77
2021/10/31 02:30:14;;;;;;;21.53;12.27;;;;;;;10.19;65.28;100324.19;5096718;56;1138850;-78
2021/10/31 02:35:22;;;;;;;18.10;9.70;;;;;;;10.18;65.33;100319.86;5114868;57;21150;-77
2021/10/31 02:40:31;;;;;;;18.10;11.17;;;;;;;10.17;65.54;100320.78;5098696;57;1137063;-77
2021/10/31 02:45:36;;;;;;;25.77;11.27;;;;;;;10.18;65.54;100321.63;5128117;56;1143205;-77
2021/10/31 02:50:45;;;;;;;18.32;10.90;;;;;;;10.18;65.71;100321.63;5127187;56;1143272;-77
2021/10/31 02:55:58;;;;;;;19.37;11.00;;;;;;;10.17;65.78;100326.55;5127129;56;1143508;-77
2021/10/31 03:01:05;;;;;;;;;;;;;;;10.16;65.82;100324.39;5129060;56;1143331;-77
2021/10/31 03:06:13;;;;;;;16.83;11.00;;;;;;;10.18;66.00;100332.20;5133170;56;976384;-77
2021/10/31 03:11:20;;;;;;;24.53;12.90;;;;;;;10.20;65.99;100336.44;5132692;56;1141005;-77
2021/10/31 03:16:25;;;;;;;21.47;13.73;;;;;;;10.20;66.21;100336.92;5134268;56;1143277;-77
2021/10/31 03:21:31;;;;;;;17.53;12.47;;;;;;;10.20;66.27;100345.69;5099817;56;1143159;-78
2021/10/31 03:26:37;;;;;;;22.20;13.48;;;;;;;10.20;66.21;100348.81;5081656;57;1143179;-77
2021/10/31 03:31:43;;;;;;;21.20;12.30;;;;;;;10.17;66.44;100354.30;5098579;57;1143508;-77
2021/10/31 03:36:50;;;;;;;18.63;10.90;;;;;;;10.14;66.55;100361.98;5100208;57;1143138;-77
2021/10/31 03:41:56;;;;;;;20.60;12.93;;;;;;;10.13;66.57;100356.34;5100300;57;1143326;-77
2021/10/31 03:47:01;;;;;;;18.90;11.50;;;;;;;10.14;66.64;100355.86;5099772;57;1143296;-77
2021/10/31 03:52:08;;;;;;;20.90;13.00;;;;;;;10.10;66.83;100357.89;5098984;57;1143376;-76
2021/10/31 03:57:13;;;;;;;22.70;14.00;;;;;;;10.08;67.01;100362.45;5099647;57;1143279;-77
2021/10/31 04:02:19;;;;;;;19.40;10.80;;;;;;;10.04;67.15;100354.91;5098956;57;1143536;-76
2021/10/31 04:07:25;;;;;;;20.40;13.67;;;;;;;10.01;67.45;100368.34;5098601;57;1143573;-76
2021/10/31 04:12:31;;;;;;;22.13;13.03;;;;;;;9.97;67.45;100371.70;5099854;57;1143173;-77
2021/10/31 04:17:37;;;;;;;27.67;14.47;;;;;;;9.95;67.51;100381.53;5101297;57;1141138;-76
2021/10/31 04:22:45;;;;;;;20.43;12.37;;;;;;;9.92;67.74;100385.77;5099815;57;1141042;-77
2021/10/31 04:27:51;;;;;;;19.67;13.33;;;;;;;9.88;67.84;100381.66;5099751;57;1141279;-77
2021/10/31 04:32:57;;;;;;;19.17;13.03;;;;;;;9.87;67.85;100390.06;5099470;57;1141271;-77
2021/10/31 04:38:11;;;;;;;24.32;13.75;;;;;;;9.83;68.00;100388.61;5099791;57;1141077;-77
2021/10/31 04:43:12;;;;;;;26.37;14.47;;;;;;;9.81;68.18;100386.56;5103017;57;1141007;-77
2021/10/31 04:48:19;;;;;;;25.83;12.93;;;;;;;9.80;68.24;100395.92;5079163;57;1141264;-77
2021/10/31 04:53:25;;;;;;;21.20;12.93;;;;;;;9.76;68.30;100392.70;5071929;57;1141113;-77
2021/10/31 04:58:30;;;;;;;21.23;12.03;;;;;;;9.76;68.37;100401.09;5071949;57;1141404;-76
2021/10/31 05:03:36;;;;;;;14.57;9.60;;;;;;;9.75;68.44;100398.94;5071949;57;1141118;-76
2021/10/31 05:08:42;;;;;;;15.50;9.23;;;;;;;9.75;68.87;100398.94;5071865;57;1139047;-77
2021/10/31 05:13:48;;;;;;;22.30;12.67;;;;;;;9.76;69.04;100396.66;5071949;57;1139288;-77
2021/10/31 05:18:55;;;;;;;23.67;12.97;;;;;;;9.78;68.83;100408.40;5082617;56;1141183;-77
2021/10/31 05:24:01;;;;;;;16.63;10.80;;;;;;;9.79;68.91;100399.05;5219616;56;1141093;-77
2021/10/31 05:29:07;;;;;;;22.13;13.30;;;;;;;9.79;69.06;100401.69;5219542;56;1141145;-76
2021/10/31 05:34:13;;;;;;;20.90;13.07;;;;;;;9.79;68.93;100399.05;5219501;56;1140949;-76
2021/10/31 05:39:19;;;;;;;24.90;13.53;;;;;;;9.77;69.08;100403.63;5165162;56;1139254;-77
2021/10/31 05:44:25;;;;;;;20.90;12.37;;;;;;;9.76;69.36;100403.27;5165146;56;1138928;-77
2021/10/31 05:49:31;;;;;;;29.37;13.10;;;;;;;9.77;69.24;100404.95;5164997;57;1139076;-76
2021/10/31 05:54:36;;;;;;;24.47;13.10;;;;;;;9.76;69.34;100410.34;5164916;56;1139088;-77
2021/10/31 05:59:42;;;;;;;22.15;13.18;;;;;;;9.76;69.20;100415.15;5164996;57;1139030;-77
2021/10/31 06:04:48;;;;;;;19.30;12.67;;;;;;;9.76;69.44;100423.55;5156631;56;1139041;-77
2021/10/31 06:09:56;;;;;;;18.27;11.33;;;;;;;9.78;69.45;100429.53;5152786;56;1139106;-77
2021/10/31 06:15:05;;;;;;;18.73;12.80;;;;;;;9.76;69.26;100432.31;5049188;57;1139313;-77
2021/10/31 06:20:13;;;;;;;28.83;16.00;;;;;;;9.78;69.23;100430.37;5067168;57;1139144;-77
2021/10/31 06:25:19;;;;;;;17.97;12.13;;;;;;;9.80;69.25;100440.34;5056766;58;1139053;-76
2021/10/31 06:30:25;;;;;;;23.27;12.93;;;;;;;9.82;69.26;100445.52;5056295;58;1139074;-76
2021/10/31 06:35:31;;;;;;;18.77;10.83;;;;;;;9.85;69.23;100457.17;5073777;57;1139259;-77
2021/10/31 06:40:36;;;;;;;19.70;11.90;;;;;;;9.84;69.16;100455.02;5108117;57;1138965;-78
2021/10/31 06:45:42;;;;;;;18.33;11.07;;;;;;;9.91;69.10;100472.58;5101575;57;1138922;-77
2021/10/31 06:50:53;;;;;;;22.60;11.93;;;;;;;9.95;69.11;100464.76;5095577;57;1139396;-77
2021/10/31 06:55:58;;;;;;;19.67;11.63;;;;;;;10.02;69.16;100471.27;5162429;56;1139057;-77
2021/10/31 07:01:05;;;;;;;18.33;11.83;;;;;;;10.10;69.01;100474.16;5093459;56;1138871;-77
2021/10/31 07:06:11;;;;;;;16.63;11.67;;;;;;;10.24;68.96;100471.81;5089703;57;1139266;-78
2021/10/31 07:11:16;;;;;;;19.40;11.83;;;;;;;10.41;68.97;100476.64;5114640;57;21194;-77
2021/10/31 07:16:22;;;;;;;18.17;11.77;;;;;;;10.64;68.93;100476.19;5094908;56;1139035;-76
2021/10/31 07:21:28;;;;;;;16.60;10.40;;;;;;;10.89;68.76;100473.75;5097423;56;1143062;-77
2021/10/31 07:26:38;;;;;;;20.70;12.10;;;;;;;11.11;67.77;100472.41;5111850;56;1143153;-78
2021/10/31 07:31:45;;;;;;;13.23;9.93;;;;;;;11.32;67.98;100477.75;5185512;56;1143310;-77
2021/10/31 07:36:53;;;;;;;17.33;10.77;;;;;;;11.56;66.86;100481.06;5164592;56;1141115;-76
2021/10/31 07:41:59;;;;;;;19.00;11.50;;;;;;;11.76;67.08;100491.37;5120249;57;1143242;-77
2021/10/31 07:47:05;;;;;;;16.13;10.40;;;;;;;12.06;66.91;100498.58;5123377;56;1143201;-77
2021/10/31 07:52:10;;;;;;;15.93;9.80;;;;;;;12.43;65.47;100490.98;5128186;57;1143225;-77
2021/10/31 07:57:24;;;;;;;18.03;11.47;;;;;;;12.43;65.47;100490.98;5119935;56;1141127;-77
2021/10/31 08:02:24;;;;;;;17.37;11.40;;;;;;;12.67;65.11;100506.13;5126218;57;1143137;-77
2021/10/31 08:07:30;;;;;;;15.60;10.50;;;;;;;12.85;65.42;100494.86;5112868;57;1143257;-77
2021/10/31 08:12:37;;;;;;;19.47;11.83;;;;;;;12.95;62.87;100501.91;5124143;56;1143211;-79
2021/10/31 08:17:42;;;;;;;17.70;10.47;;;;;;;13.10;63.08;100500.20;5123341;56;1143417;-78
2021/10/31 08:22:49;;;;;;;16.23;10.00;;;;;;;13.12;62.78;100498.25;5138453;56;1143376;-78
2021/10/31 08:27:56;;;;;;;15.45;10.98;;;;;;;13.31;63.46;100504.95;5193216;56;1143244;-78
2021/10/31 08:33:19;;;;;;;16.40;10.37;;;;;;;13.45;62.45;100504.55;5145758;56;1143474;-78
2021/10/31 08:38:17;;;;;;;18.90;12.30;;;;;;;13.53;61.70;100498.56;5124432;56;1143388;-78
2021/10/31 08:43:23;;;;;;;14.87;9.73;;;;;;;13.67;61.28;100500.80;5173740;56;1143427;-79
2021/10/31 08:48:30;;;;;;;17.10;9.83;;;;;;;13.85;60.80;100505.78;5186945;55;1141185;-77
2021/10/31 08:53:37;;;;;;;18.50;11.13;;;;;;;13.93;61.17;100514.37;5203395;56;1141405;-78
2021/10/31 08:58:44;;;;;;;14.67;10.30;;;;;;;13.97;60.87;100507.31;5195693;56;1143047;-77
2021/10/31 09:03:52;;;;;;;16.70;10.43;;;;;;;14.01;60.47;100497.23;5198235;55;1143174;-78
2021/10/31 09:08:58;;;;;;;15.00;10.13;;;;;;;14.18;60.34;100492.53;5207511;55;1143742;-78
2021/10/31 09:14:04;;;;;;;19.90;11.50;;;;;;;14.26;60.12;100494.46;5231126;55;1143340;-78
2021/10/31 09:19:10;;;;;;;14.70;10.93;;;;;;;14.29;59.47;100494.18;5232704;55;1143130;-78
2021/10/31 09:24:16;;;;;;;13.57;10.10;;;;;;;14.36;60.63;100489.45;5230344;55;1143070;-79
2021/10/31 09:29:22;;;;;;;17.20;11.77;;;;;;;14.46;59.47;100488.64;5234896;55;1143165;-77
2021/10/31 09:34:29;;;;;;;29.77;15.37;;;;;;;14.51;59.60;100480.58;5232675;55;1143283;-77
2021/10/31 09:39:35;;;;;;;21.43;11.50;;;;;;;14.60;59.72;100479.70;5234354;55;1143270;-78
2021/10/31 09:44:51;;;;;;;14.30;9.37;;;;;;;14.74;59.96;100455.75;5242076;55;1143302;-78
2021/10/31 09:49:57;;;;;;;19.50;12.20;;;;;;;14.99;59.27;100458.20;5009352;58;1141172;-78
2021/10/31 09:55:03;;;;;;;15.70;10.77;;;;;;;15.17;59.75;100450.25;5184315;56;1143158;-78
2021/10/31 10:00:11;;;;;;;16.67;11.57;;;;;;;15.35;58.98;100445.29;5168560;56;1143403;-78
2021/10/31 10:05:23;;;;;;;16.80;11.00;;;;;;;15.44;59.11;100444.36;5121244;56;1141116;-78
2021/10/31 10:10:33;;;;;;;17.83;9.93;;;;;;;15.58;58.23;100448.39;5105801;56;1141281;-78
2021/10/31 10:15:39;;;;;;;17.53;10.83;;;;;;;15.68;58.55;100445.13;5147809;56;1139151;-79
2021/10/31 10:20:45;;;;;;;17.73;10.67;;;;;;;15.77;58.64;100448.20;5180577;56;1141221;-78
2021/10/31 10:25:52;;;;;;;17.23;11.10;;;;;;;15.94;58.61;100437.66;5182089;56;1141261;-77
2021/10/31 10:31:21;;;;;;;32.37;19.57;;;;;;;16.06;57.59;100437.25;5174037;56;1141088;-77
2021/10/31 10:36:28;;;;;;;15.80;8.67;;;;;;;16.16;58.32;100430.00;5160739;56;1141282;-79
2021/10/31 10:41:44;;;;;;;17.20;10.37;;;;;;;16.31;57.68;100422.74;5197273;56;1139160;-78
2021/10/31 10:46:55;;;;;;;14.80;9.70;;;;;;;16.42;57.13;100415.78;5164785;56;1139025;-79
2021/10/31 10:52:24;;;;;;;12.70;9.60;;;;;;;16.51;57.22;100412.98;5153305;56;21134;-78
2021/10/31 10:57:35;;;;;;;14.50;10.90;;;;;;;16.60;56.82;100413.87;5121881;57;1137276;-78
2021/10/31 11:02:41;;;;;;;10.93;9.17;;;;;;;16.72;56.87;100395.76;4987454;58;1143250;-78
2021/10/31 11:07:50;;;;;;;11.23;8.17;;;;;;;16.88;56.92;100391.30;4905985;58;1141108;-79
2021/10/31 11:12:59;;;;;;;9.83;7.27;;;;;;;17.07;56.52;100391.53;4995301;57;1141069;-79
2021/10/31 11:18:08;;;;;;;15.43;9.83;;;;;;;17.24;55.12;100387.05;4983847;57;1139117;-79
2021/10/31 11:23:18;;;;;;;13.23;9.10;;;;;;;17.41;56.24;100388.74;5064696;58;1141164;-79
2021/10/31 11:28:24;;;;;;;16.37;9.07;;;;;;;17.59;56.11;100388.55;5056576;58;1141304;-79
2021/10/31 11:33:31;;;;;;;17.90;9.63;;;;;;;17.81;55.95;100379.05;5100805;57;1141144;-79
2021/10/31 11:38:38;;;;;;;15.10;9.20;;;;;;;18.03;56.51;100374.82;5071745;57;1141383;-79
2021/10/31 11:43:53;;;;;;;14.43;7.97;;;;;;;18.21;55.41;100365.58;5062263;58;1141169;-83
2021/10/31 11:49:02;;;;;;;12.40;8.40;;;;;;;18.35;55.10;100354.66;5070249;57;1141384;-79
2021/10/31 11:54:14;;;;;;;12.47;9.33;;;;;;;18.50;54.91;100357.44;5069417;57;1141143;-82
2021/10/31 11:59:22;;;;;;;14.10;8.13;;;;;;;18.59;54.76;100357.28;5069358;57;1141127;-81
2021/10/31 12:10:39;;;;;;;14.13;10.10;;;;;;;18.89;54.19;100357.45;5079690;58;1141125;-78
2021/10/31 12:16:04;;;;;;;35.87;32.27;;;;;;;18.95;53.91;100348.19;5079685;57;1141357;-77
2021/10/31 12:21:32;;;;;;;25.27;9.37;;;;;;;19.08;52.79;100338.75;4983232;59;1141361;-78
2021/10/31 12:26:45;;;;;;;11.10;8.23;;;;;;;19.17;52.76;100346.55;5024035;58;1139047;-77
2021/10/31 15:50:40;;;;;;;35.87;18.70;;;;;;;16.64;56.77;100262.23;5328847;55;46134;-84
2021/10/31 15:55:46;;;;;;;35.37;21.33;;;;;;;16.42;56.95;100258.30;5103019;57;1138988;-84
2021/10/31 16:00:55;;;;;;;41.37;22.17;;;;;;;16.26;57.25;100253.75;5054746;57;1143172;-86
2021/10/31 16:06:02;;;;;;;54.17;24.77;;;;;;;16.17;57.47;100256.90;5083585;57;1143183;-84
2021/10/31 16:11:08;;;;;;;50.57;25.53;;;;;;;16.11;57.62;100243.35;5124879;57;1143159;-89
2021/10/31 16:16:16;;;;;;;45.07;25.10;;;;;;;16.02;57.71;100244.33;5057849;56;1143318;-87
2021/10/31 16:21:23;;;;;;;37.47;21.07;;;;;;;15.92;57.91;100244.44;4893962;59;1143269;-88
2021/10/31 16:26:28;;;;;;;42.57;21.77;;;;;;;15.80;58.26;100241.72;4944636;59;1143256;-85
2021/10/31 16:31:36;;;;;;;45.00;21.90;;;;;;;15.80;58.26;100241.72;4916650;59;1141129;-86
2021/10/31 16:36:42;;;;;;;39.33;21.73;;;;;;;15.73;58.34;100238.03;5073944;57;1141090;-86
2021/10/31 16:41:49;;;;;;;38.63;21.00;;;;;;;15.62;58.51;100239.62;5124562;57;1141188;-85
2021/10/31 16:46:55;;;;;;;42.80;22.60;;;;;;;15.52;58.72;100241.53;5033525;57;1141318;-86
2021/10/31 16:52:01;;;;;;;40.33;19.83;;;;;;;15.41;58.87;100239.98;5019399;59;1141113;-87
2021/10/31 16:57:09;;;;;;;46.10;21.87;;;;;;;15.34;59.08;100238.92;4879631;59;1141087;-86
2021/10/31 17:02:15;;;;;;;31.53;19.20;;;;;;;15.24;59.37;100240.86;4877610;59;1141136;-86
2021/10/31 17:07:26;;;;;;;28.13;17.30;;;;;;;15.11;59.61;100243.94;4877505;59;1141104;-84
2021/10/31 17:12:34;;;;;;;36.50;23.67;;;;;;;15.04;59.88;100244.20;4877791;59;1141004;-88
2021/10/31 17:17:40;;;;;;;53.73;32.63;;;;;;;14.96;60.08;100238.32;4877643;59;1141060;-88
2021/10/31 17:22:46;;;;;;;100.30;56.90;;;;;;;14.90;60.30;100238.92;4892506;60;1141492;-86
2021/10/31 17:27:53;;;;;;;81.40;44.07;;;;;;;14.87;60.44;100235.23;4876867;59;1143290;-87
2021/10/31 17:32:59;;;;;;;101.23;53.47;;;;;;;14.81;60.55;100235.86;4874777;59;1141413;-86
2021/10/31 17:38:05;;;;;;;127.20;61.47;;;;;;;14.76;60.72;100234.14;4930689;59;1143184;-84
2021/10/31 17:43:11;;;;;;;122.43;59.90;;;;;;;14.69;60.80;100231.73;5127223;56;1143283;-85
2021/10/31 17:48:17;;;;;;;111.40;54.40;;;;;;;14.61;61.00;100222.36;5095958;57;1141577;-88
2021/10/31 17:53:22;;;;;;;90.00;45.77;;;;;;;14.45;61.17;100204.90;5087306;58;1141194;-89
2021/10/31 17:58:28;;;;;;;75.77;45.93;;;;;;;14.43;61.39;100209.04;5106892;58;21833;-87
2021/10/31 18:03:36;;;;;;;71.53;34.00;;;;;;;14.26;61.37;100213.32;5087553;58;1139043;-86
2021/10/31 18:08:42;;;;;;;58.47;25.07;;;;;;;14.08;61.69;100209.78;5033957;58;1143317;-83
2021/10/31 18:13:48;;;;;;;37.93;19.90;;;;;;;13.88;62.12;100198.94;4983890;57;1143002;-86
2021/10/31 18:18:54;;;;;;;78.70;38.27;;;;;;;13.73;62.49;100190.13;4996793;58;1143192;-83
2021/10/31 18:24:00;;;;;;;119.17;51.10;;;;;;;13.59;62.98;100179.98;5011460;59;1143098;-84
2021/10/31 18:29:05;;;;;;;107.03;51.88;;;;;;;13.53;63.47;100167.77;4985059;58;1145184;-84
2021/10/31 18:34:11;;;;;;;124.30;60.03;;;;;;;13.44;63.92;100165.50;5017176;58;1145234;-84
2021/10/31 18:39:17;;;;;;;165.73;78.77;;;;;;;13.35;64.30;100155.73;5019581;57;1145540;-82
2021/10/31 18:44:23;;;;;;;94.17;50.00;;;;;;;13.29;64.59;100149.69;5023011;58;1145288;-85
2021/10/31 18:49:29;;;;;;;68.37;36.43;;;;;;;13.23;64.99;100139.14;5023141;58;1143273;-83
2021/10/31 18:54:36;;;;;;;67.30;38.07;;;;;;;13.19;65.22;100134.27;5023182;58;1143233;-84
2021/10/31 18:59:42;;;;;;;85.30;44.70;;;;;;;13.14;65.28;100133.33;5023182;57;1143117;-85
2021/10/31 19:04:48;;;;;;;54.87;30.67;;;;;;;13.09;65.54;100132.95;5023501;58;1143353;-86
2021/10/31 19:09:54;;;;;;;45.33;23.63;;;;;;;13.03;65.63;100130.36;5017892;58;1143246;-83
2021/10/31 19:15:01;;;;;;;36.47;21.00;;;;;;;12.95;66.27;100115.66;5014630;58;1143215;-82
2021/10/31 19:20:09;;;;;;;45.47;21.67;;;;;;;12.88;66.47;100108.40;5034024;58;1143159;-87
2021/10/31 19:25:16;;;;;;;33.33;19.23;;;;;;;12.81;66.85;100102.84;4972526;58;1143252;-86
2021/10/31 19:30:23;;;;;;;32.00;19.43;;;;;;;12.77;66.81;100095.31;4976241;56;1143086;-84
2021/10/31 19:35:29;;;;;;;33.80;19.33;;;;;;;12.73;66.78;100081.48;5057412;56;1143162;-87
2021/10/31 19:40:35;;;;;;;39.10;20.70;;;;;;;12.69;66.75;100068.14;4998461;58;1143318;-85
2021/10/31 19:45:41;;;;;;;34.23;18.70;;;;;;;12.68;66.72;100058.52;4935908;58;1143371;-88
2021/10/31 19:50:46;;;;;;;28.17;19.27;;;;;;;12.64;67.13;100062.45;4934972;59;1143342;-78
2021/10/31 19:55:53;;;;;;;30.50;18.17;;;;;;;12.58;66.80;100060.36;4936959;58;1143187;-81
2021/10/31 20:00:59;;;;;;;34.93;18.37;;;;;;;12.55;67.07;100043.40;4994992;58;1143191;-79
2021/10/31 20:06:06;;;;;;;35.47;19.47;;;;;;;12.51;66.95;100042.03;4992370;58;1143223;-82
2021/10/31 20:11:13;;;;;;;34.83;19.10;;;;;;;12.51;66.73;100042.03;4991696;58;1143208;-76
2021/10/31 20:16:20;;;;;;;34.47;18.53;;;;;;;12.49;66.74;100037.36;4970528;58;1142900;-79
2021/10/31 20:21:26;;;;;;;36.60;19.47;;;;;;;12.46;66.55;100033.17;4967981;58;1143456;-74
2021/10/31 20:26:32;;;;;;;37.63;19.27;;;;;;;12.43;66.42;100023.33;4970560;58;1143329;-77
2021/10/31 20:31:38;;;;;;;34.10;17.63;;;;;;;12.39;66.39;100017.47;4980448;58;1143269;-79
2021/10/31 20:36:44;;;;;;;27.50;17.17;;;;;;;12.35;66.28;100020.56;5004956;57;1143477;-78
2021/10/31 20:41:50;;;;;;;26.43;15.70;;;;;;;12.32;66.20;100006.61;4995556;58;1143262;-80
2021/10/31 20:46:55;;;;;;;41.33;15.90;;;;;;;12.31;66.10;100000.13;4954120;58;1143210;-78
2021/10/31 20:52:02;;;;;;;29.33;16.03;;;;;;;12.24;66.06;99993.21;4960577;58;1143493;-79
2021/10/31 20:57:08;;;;;;;26.27;15.87;;;;;;;12.20;65.97;99984.38;4932364;57;1141052;-79
2021/10/31 21:02:14;;;;;;;28.33;16.03;;;;;;;12.16;66.00;99994.91;4970226;57;1141336;-78
2021/10/31 21:07:19;;;;;;;49.67;21.73;;;;;;;12.13;65.93;99980.13;4992423;58;1141102;-80
2021/10/31 21:12:25;;;;;;;35.87;20.10;;;;;;;12.09;65.82;99981.86;4992332;58;1141161;-77
2021/10/31 21:17:31;;;;;;;34.60;17.60;;;;;;;12.04;65.86;99972.20;5062749;58;1139085;-79
2021/10/31 21:22:38;;;;;;;38.00;18.83;;;;;;;11.97;65.82;99963.47;5073601;58;1139071;-79
2021/10/31 21:27:44;;;;;;;37.90;20.07;;;;;;;11.91;65.88;99953.95;5081551;58;1139583;-78
2021/10/31 21:32:49;;;;;;;34.67;18.53;;;;;;;11.82;66.03;99949.47;5084929;58;1139254;-75
2021/10/31 21:37:59;;;;;;;36.33;18.50;;;;;;;11.71;66.09;99940.33;5082166;58;1139011;-79
2021/10/31 21:43:07;;;;;;;32.10;17.37;;;;;;;11.62;66.12;99927.41;5096316;58;1138731;-77
2021/10/31 21:48:13;;;;;;;32.83;16.53;;;;;;;11.55;66.48;99917.88;5089400;58;1139087;-77
2021/10/31 21:53:19;;;;;;;31.17;15.63;;;;;;;11.50;66.33;99913.97;5091989;57;1139097;-77
2021/10/31 21:58:25;;;;;;;27.13;15.03;;;;;;;11.41;66.44;99900.26;5070627;58;1139289;-76
2021/10/31 22:03:31;;;;;;;25.17;14.63;;;;;;;11.38;66.63;99893.91;5058133;58;1139070;-79
2021/10/31 22:08:36;;;;;;;34.20;18.27;;;;;;;11.35;66.65;99887.56;5017682;58;1139034;-79
2021/10/31 22:13:42;;;;;;;27.47;15.40;;;;;;;11.34;66.68;99882.75;5013925;59;1139027;-77
2021/10/31 22:18:51;;;;;;;41.10;15.57;;;;;;;11.35;66.62;99883.11;5016358;58;1138984;-76
2021/10/31 22:23:58;;;;;;;27.45;14.78;;;;;;;11.31;66.56;99877.73;5015992;58;1139041;-80
2021/10/31 22:29:04;;;;;;;26.13;14.13;;;;;;;11.27;66.51;99879.01;5022910;58;1139240;-77
2021/10/31 22:34:10;;;;;;;25.73;14.13;;;;;;;11.23;66.53;99874.47;5113422;57;1139466;-77
2021/10/31 22:39:16;;;;;;;33.27;16.03;;;;;;;11.18;66.69;99873.20;5149520;56;1137138;-76
2021/10/31 22:44:24;;;;;;;27.50;15.97;;;;;;;11.12;66.58;99867.16;5148787;57;1137105;-78
2021/10/31 22:49:29;;;;;;;29.80;15.93;;;;;;;11.04;66.71;99851.13;5138163;57;1141093;-77
2021/10/31 22:54:35;;;;;;;29.33;16.43;;;;;;;10.96;66.87;99850.98;5123592;56;1141156;-77
2021/10/31 22:59:41;;;;;;;34.00;16.40;;;;;;;10.90;67.07;99839.97;5107157;57;1141246;-81
2021/10/31 23:04:48;;;;;;;34.53;16.80;;;;;;;10.86;67.00;99838.56;5107064;57;1141749;-77
2021/10/31 23:09:54;;;;;;;29.63;15.90;;;;;;;10.79;67.11;99845.40;5107520;56;1141160;-80
2021/10/31 23:15:00;;;;;;;28.70;15.73;;;;;;;10.72;67.34;99835.00;5107275;57;1141456;-82
2021/10/31 23:20:06;;;;;;;33.40;16.87;;;;;;;10.62;67.51;99822.73;5106919;57;1141480;-80
2021/10/31 23:25:12;;;;;;;34.20;17.50;;;;;;;10.54;67.61;99821.59;5117685;56;1141510;-83
2021/10/31 23:30:19;;;;;;;31.30;17.60;;;;;;;10.48;67.78;99820.83;5193876;56;1141214;-78
2021/10/31 23:35:25;;;;;;;35.57;18.33;;;;;;;10.41;68.34;99818.84;5194155;56;1141547;-80
2021/10/31 23:40:31;;;;;;;30.73;15.53;;;;;;;10.34;68.16;99810.64;5195133;57;1141432;-81
2021/10/31 23:45:37;;;;;;;32.37;15.63;;;;;;;10.24;68.73;99791.25;5196083;56;1141590;-78
2021/10/31 23:50:43;;;;;;;30.37;16.23;;;;;;;10.18;68.77;99786.50;5195120;56;1141291;-81
2021/10/31 23:55:50;;;;;;;29.07;16.27;;;;;;;10.13;68.70;99782.92;5194774;56;1141364;-78
